Armington, Montana
Current Conditions -  °F | °C
As of 3:56 PM on Saturday 25 Oct 2014 (Local Time) from KGFA Reporting Station
Clear Clear  
Wind Chill: 13°   Ceiling: Unl
Heat Index: 13°   Visibility: 10mi
Dew Point:   Wind: 5mph
Humidity: 61%   Direction: 50°NE
Pressure: 29.76"   Gusts: NA
Location:  47.3298°N, 110.893°W
Report Text: KGFA 252156Z AUTO 05004KT 10SM CLR 13/06 A2976 RMK AO2 SLPNO T01330059
Loading
Personal Weather Stations






























Interactive Weather Map
Tropical Storm Tracking
New forecast layout! Learn more

10-Day Weather Forecast

Advertisements
Track Severe Weather on mobile